Time;durP1;ratioP1;P1;durP2;ratioP2;P2;SDS_P1;SDS_P2;PMS_P1;PMS_P2;Temp;Humidity;BMP_temperature;BMP_pressure;BME280_temperature;BME280_humidity;BME280_pressure;Samples;Min_cycle;Max_cycle;Signal;HPM_P1;HPM_P2
2021/07/28 00:00:11;;;;;;;21.27;12.32;;;;;;;15.06;90.30;101045.31;5073751;28;20106;-64
2021/07/28 00:02:39;;;;;;;24.08;13.57;;;;;;;15.05;90.40;101047.13;5055829;28;20036;-65
2021/07/28 00:05:05;;;;;;;23.35;13.02;;;;;;;15.03;90.35;101042.84;5074061;28;20020;-64
2021/07/28 00:07:31;;;;;;;22.05;12.48;;;;;;;15.00;90.40;101048.34;5073921;28;20041;-66
2021/07/28 00:09:56;;;;;;;26.80;13.80;;;;;;;14.98;90.57;101034.25;5073824;28;20017;-65
2021/07/28 00:12:21;;;;;;;24.73;13.57;;;;;;;14.99;90.66;101028.81;5074046;28;20436;-64
2021/07/28 00:14:47;;;;;;;21.63;13.43;;;;;;;14.98;90.44;101024.44;5073413;28;20478;-65
2021/07/28 00:17:13;;;;;;;22.50;13.20;;;;;;;14.96;90.64;101025.47;5073819;28;20021;-65
2021/07/28 00:25:07;;;;;;;21.50;12.70;;;;;;;14.88;90.70;101024.13;5073251;28;20127;-64
2021/07/28 00:27:35;;;;;;;23.10;13.15;;;;;;;14.86;90.91;101026.03;5073422;28;20147;-64
2021/07/28 00:30:00;;;;;;;23.13;13.13;;;;;;;14.84;91.08;101019.09;5073634;28;20044;-64
2021/07/28 00:32:25;;;;;;;23.17;12.93;;;;;;;14.82;91.20;101018.31;5073302;28;20462;-65
2021/07/28 00:34:51;;;;;;;24.77;13.43;;;;;;;14.82;91.25;101018.31;5073417;28;20039;-64
2021/07/28 00:37:16;;;;;;;25.92;13.10;;;;;;;14.85;91.02;101020.81;5072973;28;20032;-65
2021/07/28 00:39:41;;;;;;;26.30;14.52;;;;;;;14.87;90.84;101018.88;5073383;28;20032;-64
2021/07/28 00:42:06;;;;;;;25.55;14.63;;;;;;;14.89;90.84;101019.66;5072979;28;20483;-65
2021/07/28 00:44:32;;;;;;;26.70;14.75;;;;;;;14.89;90.97;101009.84;5072866;28;20035;-64
2021/07/28 00:46:57;;;;;;;30.63;16.15;;;;;;;14.89;90.80;101012.50;5072965;28;20016;-65
2021/07/28 00:49:23;;;;;;;29.98;15.70;;;;;;;14.92;90.77;101008.81;5073560;28;20439;-64
2021/07/28 00:51:49;;;;;;;31.27;17.67;;;;;;;14.91;90.73;101007.09;5072985;28;20020;-65
2021/07/28 00:54:14;;;;;;;31.02;16.17;;;;;;;14.91;90.91;101004.41;5072901;28;20024;-65
2021/07/28 00:56:40;;;;;;;32.90;17.20;;;;;;;14.87;90.88;100995.78;5072693;28;20477;-65
2021/07/28 00:59:08;;;;;;;30.42;16.80;;;;;;;14.90;91.37;101002.72;5073024;28;20493;-65
2021/07/28 01:01:35;;;;;;;34.75;17.55;;;;;;;14.91;91.37;101005.28;5072597;28;20108;-64
2021/07/28 01:04:01;;;;;;;28.80;16.08;;;;;;;14.94;91.29;100998.91;5073031;28;20488;-64
2021/07/28 01:06:26;;;;;;;33.45;17.80;;;;;;;14.94;91.09;101000.75;5072165;28;20108;-65
2021/07/28 01:08:51;;;;;;;31.50;16.25;;;;;;;14.94;91.32;100993.59;5072542;28;20032;-66
2021/07/28 01:11:25;;;;;;;35.50;17.50;;;;;;;14.91;91.25;100994.63;5072452;28;20082;-65
2021/07/28 01:13:50;;;;;;;36.15;16.55;;;;;;;14.89;91.40;100993.84;5072709;28;20036;-64
2021/07/28 01:16:22;;;;;;;34.55;16.60;;;;;;;14.91;91.71;100989.28;5072694;28;20028;-65
2021/07/28 01:18:48;;;;;;;39.30;17.48;;;;;;;14.93;91.63;100986.53;5072129;28;20058;-64
2021/07/28 01:21:15;;;;;;;35.13;17.30;;;;;;;14.90;91.75;100987.56;5072528;28;20032;-65
2021/07/28 01:23:42;;;;;;;35.10;17.63;;;;;;;14.90;91.77;100982.25;5072488;28;20112;-65
2021/07/28 01:26:08;;;;;;;32.30;16.88;;;;;;;14.93;91.75;100989.19;5072466;28;20028;-65
2021/07/28 01:28:34;;;;;;;32.42;16.88;;;;;;;14.94;91.93;100982.06;5072000;28;20055;-65
2021/07/28 01:31:10;;;;;;;35.35;17.73;;;;;;;14.94;91.85;100984.75;5072450;28;20033;-65
2021/07/28 01:33:38;;;;;;;31.65;16.70;;;;;;;14.95;91.96;100986.44;5072059;28;20028;-64
2021/07/28 01:36:08;;;;;;;36.72;16.40;;;;;;;14.97;92.13;100985.38;5072385;28;20046;-65
2021/07/28 01:38:35;;;;;;;36.83;17.27;;;;;;;14.98;92.10;100976.44;5071155;28;20028;-62
2021/07/28 01:41:03;;;;;;;29.23;16.23;;;;;;;15.00;91.72;100981.66;5072152;28;20024;-64
2021/07/28 01:43:29;;;;;;;32.17;17.38;;;;;;;15.03;91.94;100970.84;5071991;28;20021;-63
2021/07/28 01:45:56;;;;;;;31.23;16.90;;;;;;;15.04;91.53;100965.41;5072090;28;20024;-64
2021/07/28 01:48:23;;;;;;;34.08;17.50;;;;;;;15.03;91.54;100961.00;5072159;28;20045;-64
2021/07/28 01:50:49;;;;;;;31.27;15.95;;;;;;;15.05;91.84;100968.91;5071951;28;20112;-65
2021/07/28 01:53:15;;;;;;;32.85;18.38;;;;;;;15.04;91.75;100956.56;5072209;28;20496;-64
2021/07/28 01:55:42;;;;;;;35.22;18.15;;;;;;;15.05;91.55;100963.56;5071855;28;20029;-64
2021/07/28 01:58:08;;;;;;;37.58;18.50;;;;;;;15.04;91.99;100964.56;5072247;28;20395;-64
2021/07/28 02:00:33;;;;;;;33.50;16.95;;;;;;;15.04;91.53;100961.88;5071821;28;20033;-65
2021/07/28 02:03:04;;;;;;;38.70;19.15;;;;;;;15.02;91.75;100969.13;5071738;28;20020;-65
2021/07/28 02:05:34;;;;;;;35.47;18.63;;;;;;;14.98;91.92;100957.78;5071571;28;20430;-65
2021/07/28 02:08:07;;;;;;;38.65;18.70;;;;;;;14.98;91.91;100955.09;5072267;28;20035;-65
2021/07/28 02:10:46;;;;;;;42.40;20.50;;;;;;;14.99;92.09;100958.66;5071746;28;20035;-65
2021/07/28 02:13:11;;;;;;;41.65;19.60;;;;;;;14.99;91.74;100956.81;5072283;28;20039;-64
2021/07/28 02:15:37;;;;;;;40.50;19.95;;;;;;;14.98;91.91;100956.94;5071316;28;20025;-63
2021/07/28 02:18:03;;;;;;;39.97;20.17;;;;;;;15.00;92.33;100963.00;5073961;28;20060;-64
2021/07/28 02:20:29;;;;;;;43.42;18.83;;;;;;;15.02;92.13;100956.63;5075657;28;20035;-64
2021/07/28 02:22:55;;;;;;;40.30;20.02;;;;;;;15.01;92.11;100962.06;5075998;28;20028;-64
2021/07/28 02:25:20;;;;;;;43.88;19.88;;;;;;;15.01;92.29;100959.41;5076397;28;20021;-64
2021/07/28 02:27:46;;;;;;;42.35;19.38;;;;;;;15.03;92.25;100969.00;5075637;28;20408;-65
2021/07/28 02:30:13;;;;;;;41.20;19.65;;;;;;;15.03;92.32;100957.50;5075579;28;20032;-64
2021/07/28 02:32:39;;;;;;;41.95;19.70;;;;;;;15.03;92.24;100950.34;5075292;28;20106;-65
2021/07/28 02:35:05;;;;;;;39.80;19.13;;;;;;;15.06;92.61;100958.19;5075567;28;20422;-64
2021/07/28 02:37:31;;;;;;;38.35;19.85;;;;;;;15.12;92.64;100953.41;5075241;28;20102;-65
2021/07/28 02:39:56;;;;;;;39.45;19.27;;;;;;;15.15;92.30;100954.06;5075359;28;20475;-65
2021/07/28 02:42:21;;;;;;;38.80;19.13;;;;;;;15.20;91.97;100954.63;5075629;28;20082;-65
2021/07/28 02:44:47;;;;;;;44.78;20.73;;;;;;;15.20;92.13;100954.63;5075482;28;20099;-64
2021/07/28 02:47:12;;;;;;;37.75;19.73;;;;;;;15.20;92.17;100953.78;5072649;28;20103;-64
2021/07/28 02:49:38;;;;;;;44.00;19.77;;;;;;;15.20;92.07;100954.63;5075788;28;20082;-64
2021/07/28 02:52:04;;;;;;;38.38;19.77;;;;;;;15.25;92.07;100951.69;5074846;28;20108;-64
2021/07/28 02:54:29;;;;;;;44.65;20.70;;;;;;;15.26;91.83;100945.41;5075315;28;20032;-65
2021/07/28 02:56:55;;;;;;;40.05;21.20;;;;;;;15.27;92.04;100951.56;5075272;28;20055;-65
2021/07/28 02:59:21;;;;;;;44.92;22.13;;;;;;;15.29;92.10;100952.34;5074935;28;20054;-65
2021/07/28 03:01:46;;;;;;;48.72;24.30;;;;;;;15.30;92.12;100954.06;5075071;28;20643;-65
2021/07/28 03:04:11;;;;;;;43.85;22.63;;;;;;;15.34;92.10;100948.41;5075544;28;20111;-64
2021/07/28 03:06:37;;;;;;;42.47;21.90;;;;;;;15.39;91.98;100950.81;5075365;28;20047;-64
2021/07/28 03:09:02;;;;;;;43.35;23.35;;;;;;;15.44;92.10;100946.03;5074748;28;20029;-65
2021/07/28 03:11:28;;;;;;;46.90;23.35;;;;;;;15.49;92.41;100959.94;5075090;28;20107;-65
2021/07/28 03:13:53;;;;;;;40.70;21.95;;;;;;;15.51;91.75;100947.38;5075123;28;20111;-64
2021/07/28 03:16:18;;;;;;;41.03;22.67;;;;;;;15.52;91.83;100948.22;5074868;28;20037;-65
2021/07/28 03:18:44;;;;;;;41.60;22.42;;;;;;;15.51;91.85;100943.81;5074520;28;20048;-65
2021/07/28 03:21:10;;;;;;;43.33;21.75;;;;;;;15.50;91.83;100948.31;5074625;28;20025;-65
2021/07/28 03:23:36;;;;;;;41.17;23.27;;;;;;;15.50;91.62;100948.31;5074681;28;20025;-64
2021/07/28 03:26:02;;;;;;;41.78;23.83;;;;;;;15.51;91.76;100949.16;5075000;28;20047;-62
2021/07/28 03:28:27;;;;;;;41.08;22.77;;;;;;;15.52;91.68;100948.22;5074790;28;20067;-64
2021/07/28 03:30:52;;;;;;;39.80;23.25;;;;;;;15.55;91.64;100940.03;5074116;28;20371;-65
2021/07/28 03:33:18;;;;;;;41.78;21.70;;;;;;;15.57;91.58;100938.97;5074612;28;20063;-64
2021/07/28 03:35:44;;;;;;;37.78;23.58;;;;;;;15.57;91.35;100938.09;5074596;28;20516;-63
2021/07/28 03:38:10;;;;;;;35.83;21.42;;;;;;;15.54;91.30;100936.47;5074906;28;20083;-64
2021/07/28 03:40:36;;;;;;;38.20;23.30;;;;;;;15.52;91.39;100945.53;5073529;28;20498;-65
2021/07/28 03:43:01;;;;;;;43.65;22.92;;;;;;;15.46;91.11;100940.59;5074163;28;20051;-64
2021/07/28 03:45:26;;;;;;;36.85;21.75;;;;;;;15.47;91.39;100934.31;5074428;28;20119;-64
2021/07/28 03:47:52;;;;;;;37.13;21.05;;;;;;;15.46;91.79;100930.78;5074011;28;20040;-65
2021/07/28 03:50:17;;;;;;;40.60;22.20;;;;;;;15.49;91.91;100929.75;5074003;28;20877;-64
2021/07/28 03:52:42;;;;;;;36.78;20.38;;;;;;;15.55;91.83;100937.34;5074247;28;20033;-64
2021/07/28 03:55:08;;;;;;;44.72;22.27;;;;;;;15.54;91.51;100931.16;5074479;28;20035;-66
2021/07/28 03:57:33;;;;;;;36.58;20.67;;;;;;;15.55;91.17;100932.03;5074215;28;20178;-64
2021/07/28 03:59:59;;;;;;;36.63;21.15;;;;;;;15.51;91.64;100926.03;5074122;28;20031;-64
2021/07/28 04:02:24;;;;;;;37.90;21.83;;;;;;;15.49;91.32;100940.41;5073753;28;20029;-65
2021/07/28 04:04:49;;;;;;;33.75;20.27;;;;;;;15.51;91.19;100943.81;5073953;28;20048;-66
2021/07/28 04:07:15;;;;;;;35.90;20.40;;;;;;;15.48;90.79;100936.03;5073970;28;20036;-64
2021/07/28 04:09:40;;;;;;;39.25;22.42;;;;;;;15.44;90.97;100940.69;5074058;28;20037;-66
2021/07/28 04:12:06;;;;;;;35.85;21.52;;;;;;;15.45;91.25;100941.53;5073394;28;20024;-63
2021/07/28 04:14:31;;;;;;;35.80;20.98;;;;;;;15.46;91.27;100935.25;5073474;28;20062;-65
2021/07/28 04:16:56;;;;;;;36.80;21.13;;;;;;;15.45;90.92;100931.75;5074223;28;20033;-64
2021/07/28 04:19:21;;;;;;;37.65;20.90;;;;;;;15.49;91.10;100941.25;5073607;28;20020;-64
2021/07/28 04:21:47;;;;;;;36.22;20.10;;;;;;;15.51;90.85;100927.81;5073404;28;20493;-65
2021/07/28 04:24:12;;;;;;;30.17;19.02;;;;;;;15.51;91.02;100938.47;5073442;28;20108;-65
2021/07/28 04:26:37;;;;;;;33.10;19.77;;;;;;;15.56;90.48;100939.94;5073532;28;20433;-63
2021/07/28 04:29:03;;;;;;;34.45;18.98;;;;;;;15.65;90.84;100940.28;5073798;28;20036;-64
2021/07/28 04:31:28;;;;;;;32.25;18.95;;;;;;;15.76;90.32;100936.91;5073629;28;20025;-64
2021/07/28 04:33:53;;;;;;;29.95;18.77;;;;;;;15.80;90.14;100936.59;5072911;28;20429;-64
2021/07/28 04:36:19;;;;;;;33.22;18.88;;;;;;;15.84;89.91;100939.97;5073265;28;20067;-63
2021/07/28 04:38:44;;;;;;;33.47;18.45;;;;;;;15.82;89.27;100940.06;5073327;28;20503;-64
2021/07/28 04:41:09;;;;;;;32.60;17.65;;;;;;;15.82;89.38;100933.84;5072011;28;20081;-64
2021/07/28 04:43:35;;;;;;;25.65;16.75;;;;;;;15.87;89.04;100934.44;5073262;28;20056;-65
2021/07/28 04:46:02;;;;;;;29.60;17.80;;;;;;;15.88;89.23;100937.00;5072968;28;20063;-65
2021/07/28 04:48:28;;;;;;;27.25;17.40;;;;;;;15.98;89.20;100947.91;5047930;28;20041;-64
2021/07/28 04:50:55;;;;;;;30.77;16.90;;;;;;;16.09;88.75;100939.22;5052934;28;20029;-63
2021/07/28 04:53:21;;;;;;;24.23;16.23;;;;;;;16.12;87.46;100932.81;5053383;28;20045;-63
2021/07/28 04:55:52;;;;;;;25.20;16.20;;;;;;;16.27;87.58;100941.63;5053251;28;20506;-64
2021/07/28 04:58:17;;;;;;;24.98;14.30;;;;;;;16.33;86.49;100935.84;5052643;28;20103;-63
2021/07/28 05:00:42;;;;;;;23.20;15.93;;;;;;;16.35;86.50;100937.44;5052675;28;20487;-63
2021/07/28 05:03:08;;;;;;;24.60;14.93;;;;;;;16.38;86.31;100937.25;5053043;28;20116;-65
2021/07/28 05:05:33;;;;;;;21.42;14.38;;;;;;;16.41;85.49;100932.63;5052188;28;20433;-66
2021/07/28 05:07:58;;;;;;;25.30;14.43;;;;;;;16.38;85.48;100941.72;5052500;28;20024;-65
2021/07/28 05:10:25;;;;;;;20.13;13.88;;;;;;;16.38;86.14;100933.69;5052078;28;20040;-66
2021/07/28 05:12:50;;;;;;;21.35;13.35;;;;;;;16.36;86.68;100931.13;5052941;28;20021;-65
2021/07/28 05:15:16;;;;;;;19.52;13.23;;;;;;;16.36;85.94;100932.97;5052899;28;20033;-66
2021/07/28 05:17:41;;;;;;;17.80;12.90;;;;;;;16.39;85.96;100935.41;5052831;28;20032;-64
2021/07/28 05:20:07;;;;;;;21.90;13.15;;;;;;;16.43;85.65;100928.06;5051915;28;20074;-64
2021/07/28 05:22:32;;;;;;;19.70;12.18;;;;;;;16.44;85.86;100922.59;5052796;28;20390;-63
2021/07/28 05:24:57;;;;;;;18.77;13.20;;;;;;;16.46;85.85;100936.72;5050928;28;20391;-60
2021/07/28 05:27:23;;;;;;;19.15;12.45;;;;;;;16.46;85.67;100941.19;5049277;28;20479;-62
2021/07/28 05:29:48;;;;;;;16.55;10.90;;;;;;;16.42;85.39;100929.00;5051356;28;20067;-62
2021/07/28 05:32:13;;;;;;;16.83;11.48;;;;;;;16.44;85.10;100932.44;5051537;28;20102;-62
2021/07/28 05:34:39;;;;;;;17.80;11.73;;;;;;;16.43;85.18;100938.75;5052520;28;20474;-65
2021/07/28 05:37:04;;;;;;;14.95;11.30;;;;;;;16.43;84.50;100934.25;5050768;28;20226;-63
2021/07/28 05:39:29;;;;;;;17.30;11.98;;;;;;;16.43;84.31;100930.72;5052411;28;20037;-64
2021/07/28 05:41:57;;;;;;;18.40;11.18;;;;;;;16.47;83.88;100926.88;5051759;28;20032;-61
2021/07/28 05:44:22;;;;;;;17.05;11.60;;;;;;;16.52;83.60;100925.63;5052601;28;20033;-63
2021/07/28 05:46:47;;;;;;;17.67;11.80;;;;;;;16.59;83.47;100925.22;5052438;28;20498;-62
2021/07/28 05:49:13;;;;;;;16.13;10.52;;;;;;;16.66;82.59;100935.38;5069630;28;20128;-63
2021/07/28 05:51:38;;;;;;;18.17;10.82;;;;;;;16.63;82.45;100927.53;5070458;28;20427;-64
2021/07/28 05:54:03;;;;;;;16.13;10.60;;;;;;;16.77;82.87;100928.41;5072114;28;20028;-64
2021/07/28 05:56:29;;;;;;;14.73;10.38;;;;;;;16.91;81.74;100931.00;5062530;28;20382;-63
2021/07/28 05:58:54;;;;;;;13.40;8.73;;;;;;;17.10;80.12;100932.41;5052206;28;20055;-62
2021/07/28 06:01:20;;;;;;;16.50;9.55;;;;;;;17.25;80.18;100922.41;5052322;28;20386;-64
2021/07/28 06:03:46;;;;;;;17.52;9.02;;;;;;;17.30;80.05;100922.91;5053142;28;20551;-64
2021/07/28 06:06:12;;;;;;;12.35;8.23;;;;;;;17.18;79.36;100927.34;5052237;28;20025;-64
2021/07/28 06:08:37;;;;;;;16.10;8.57;;;;;;;17.03;79.76;100931.94;5051862;28;20035;-63
2021/07/28 06:11:02;;;;;;;15.27;8.38;;;;;;;17.04;80.00;100920.28;5048729;28;20372;-64
2021/07/28 06:13:28;;;;;;;17.50;7.32;;;;;;;17.03;80.06;100919.44;5050553;28;20031;-63
2021/07/28 06:15:53;;;;;;;11.82;7.70;;;;;;;17.02;79.78;100935.59;5052053;28;20021;-61
2021/07/28 06:18:18;;;;;;;14.13;7.85;;;;;;;16.99;80.86;100923.28;5052915;28;20055;-63
2021/07/28 06:20:43;;;;;;;13.48;7.50;;;;;;;16.97;80.74;100919.88;5052875;28;20033;-62
2021/07/28 06:23:09;;;;;;;11.88;7.38;;;;;;;16.90;81.42;100923.06;5063082;28;20023;-63
2021/07/28 06:25:34;;;;;;;14.20;7.68;;;;;;;16.87;80.99;100913.44;5051811;28;20108;-63
2021/07/28 06:28:00;;;;;;;12.68;7.18;;;;;;;16.86;81.29;100925.94;5052529;28;20040;-63
2021/07/28 06:30:25;;;;;;;13.10;7.25;;;;;;;16.83;81.24;100936.03;5071830;28;20044;-62
2021/07/28 06:32:50;;;;;;;12.80;7.25;;;;;;;16.73;81.96;100930.44;5068851;28;20635;-62
2021/07/28 06:35:15;;;;;;;15.98;7.32;;;;;;;16.74;81.65;100920.59;5051989;28;20438;-63
2021/07/28 06:37:41;;;;;;;14.73;7.65;;;;;;;16.75;82.33;100920.47;5050940;28;20037;-62
2021/07/28 06:40:07;;;;;;;15.57;7.90;;;;;;;16.74;82.83;100931.28;5052637;28;20033;-61
2021/07/28 06:42:33;;;;;;;13.90;7.43;;;;;;;16.67;82.61;100930.88;5052338;28;20078;-62
2021/07/28 06:44:58;;;;;;;14.60;7.85;;;;;;;16.62;82.68;100933.00;5051674;28;20029;-62
2021/07/28 06:47:24;;;;;;;12.75;7.50;;;;;;;16.61;83.05;100929.47;5054214;28;20482;-63
2021/07/28 06:49:49;;;;;;;16.42;8.23;;;;;;;16.67;83.18;100933.53;5070921;28;20189;-62
2021/07/28 06:52:14;;;;;;;14.35;7.78;;;;;;;16.67;82.95;100925.50;5071130;28;20052;-63
2021/07/28 06:54:39;;;;;;;13.70;6.95;;;;;;;16.75;82.41;100925.81;5071669;28;20025;-63
2021/07/28 06:57:05;;;;;;;17.77;6.72;;;;;;;16.84;81.42;100924.34;5071464;28;20027;-63
2021/07/28 06:59:30;;;;;;;11.80;7.00;;;;;;;16.88;80.66;100923.19;5071545;28;20402;-64
2021/07/28 07:01:55;;;;;;;13.30;7.20;;;;;;;17.01;80.31;100921.38;5071637;28;20512;-62
2021/07/28 07:04:20;;;;;;;14.20;7.80;;;;;;;17.10;80.40;100925.22;5070884;28;20033;-62
2021/07/28 07:06:46;;;;;;;13.05;6.60;;;;;;;17.20;78.70;100915.56;5073704;28;20036;-63
2021/07/28 07:09:11;;;;;;;13.20;6.20;;;;;;;17.31;78.52;100905.91;5073221;28;20049;-63
2021/07/28 07:11:36;;;;;;;12.63;6.45;;;;;;;17.43;78.40;100914.84;5072743;28;20115;-63
2021/07/28 07:14:02;;;;;;;13.18;7.13;;;;;;;17.59;77.56;100907.41;5074543;28;20024;-63
2021/07/28 07:16:27;;;;;;;12.57;6.78;;;;;;;17.65;78.44;100915.00;5075136;28;20032;-63
2021/07/28 07:18:53;;;;;;;13.57;7.07;;;;;;;17.87;77.74;100912.56;5073406;28;20032;-62
2021/07/28 07:21:18;;;;;;;11.77;6.47;;;;;;;17.83;77.17;100910.09;5072032;28;20085;-63
2021/07/28 07:23:43;;;;;;;11.20;7.07;;;;;;;17.78;77.00;100925.66;5070355;28;20047;-63
2021/07/28 07:26:09;;;;;;;10.85;6.63;;;;;;;17.66;77.27;100905.13;5069572;28;20490;-64
2021/07/28 07:28:35;;;;;;;10.95;6.80;;;;;;;17.95;77.19;100911.03;5071417;28;20020;-63
2021/07/28 07:31:01;;;;;;;13.82;7.07;;;;;;;17.90;76.71;100915.00;5072483;28;20039;-64
2021/07/28 07:33:39;;;;;;;12.20;7.10;;;;;;;17.87;76.29;100918.78;5071575;28;20108;-63
2021/07/28 07:36:07;;;;;;;10.50;6.57;;;;;;;17.83;76.29;100923.50;5071833;28;20037;-64
2021/07/28 07:38:32;;;;;;;11.43;6.65;;;;;;;17.69;77.01;100921.00;5071608;28;20032;-63
2021/07/28 07:40:58;;;;;;;10.50;6.57;;;;;;;17.70;76.99;100925.38;5072107;28;20025;-62
2021/07/28 07:43:23;;;;;;;12.85;6.97;;;;;;;17.71;76.77;100919.06;5072378;28;20473;-62
2021/07/28 07:45:48;;;;;;;10.52;6.95;;;;;;;17.79;76.31;100910.47;5072142;28;20016;-63
2021/07/28 07:48:14;;;;;;;14.23;6.68;;;;;;;17.62;76.64;100909.88;5072132;28;20063;-64
2021/07/28 07:50:39;;;;;;;10.90;6.80;;;;;;;17.63;77.48;100913.41;5071561;28;20112;-65
2021/07/28 07:53:04;;;;;;;11.40;5.90;;;;;;;17.56;77.33;100921.03;5071880;28;20092;-64
2021/07/28 07:55:30;;;;;;;15.13;6.80;;;;;;;17.58;77.51;100921.75;5072322;28;20028;-64
2021/07/28 07:57:57;;;;;;;10.55;5.75;;;;;;;17.63;76.70;100916.94;5071961;28;20441;-63
2021/07/28 08:00:22;;;;;;;9.98;5.70;;;;;;;17.66;76.02;100914.03;5071829;28;20038;-63
2021/07/28 08:02:48;;;;;;;14.45;6.20;;;;;;;17.71;75.64;100926.22;5071619;28;20020;-62
2021/07/28 08:05:13;;;;;;;14.68;6.00;;;;;;;17.71;76.03;100921.75;5071135;28;20051;-63
2021/07/28 08:07:38;;;;;;;13.27;5.55;;;;;;;17.60;76.44;100924.34;5071440;28;20107;-63
2021/07/28 08:10:04;;;;;;;10.43;5.57;;;;;;;17.55;76.38;100926.53;5071620;28;20478;-62
2021/07/28 08:12:29;;;;;;;13.60;5.45;;;;;;;17.47;76.87;100927.91;5071627;28;20056;-65
2021/07/28 08:14:55;;;;;;;13.32;6.05;;;;;;;17.54;77.06;100917.59;5071767;28;20024;-62
2021/07/28 08:17:20;;;;;;;12.50;5.85;;;;;;;17.57;76.88;100919.22;5071016;28;20033;-64
2021/07/28 08:19:45;;;;;;;9.90;5.35;;;;;;;17.59;76.69;100933.34;5063138;28;20020;-62
2021/07/28 08:22:10;;;;;;;13.15;6.32;;;;;;;17.77;76.11;100933.81;5068005;28;20081;-63
2021/07/28 08:24:36;;;;;;;13.90;6.22;;;;;;;17.90;76.25;100906.97;5058545;28;20134;-63
2021/07/28 08:27:01;;;;;;;16.70;6.38;;;;;;;17.91;75.76;100925.59;5068543;28;20028;-63
2021/07/28 08:29:27;;;;;;;48.03;14.45;;;;;;;17.84;75.86;100930.56;5069320;28;20351;-64
2021/07/28 08:31:52;;;;;;;13.73;6.20;;;;;;;17.84;75.88;100922.53;5069458;28;20031;-64
2021/07/28 08:34:17;;;;;;;16.02;6.55;;;;;;;17.83;75.51;100926.19;5068810;28;20098;-63
2021/07/28 08:36:42;;;;;;;13.80;7.00;;;;;;;17.69;75.85;100926.34;5069158;28;20051;-63
2021/07/28 08:39:08;;;;;;;17.52;6.75;;;;;;;17.80;75.74;100933.56;5069046;28;20094;-62
2021/07/28 08:41:35;;;;;;;18.58;7.15;;;;;;;18.02;74.83;100935.56;5069071;28;20036;-63
2021/07/28 08:44:00;;;;;;;13.75;7.20;;;;;;;18.31;73.70;100933.38;5068978;28;20029;-63
2021/07/28 08:46:27;;;;;;;14.30;7.43;;;;;;;18.52;73.14;100921.97;5068996;28;20116;-62
2021/07/28 08:48:53;;;;;;;14.43;7.00;;;;;;;18.77;70.87;100928.97;5068512;28;20059;-63
2021/07/28 08:51:18;;;;;;;17.75;6.72;;;;;;;18.95;71.02;100926.69;5049497;28;20435;-63
2021/07/28 08:53:43;;;;;;;11.13;6.50;;;;;;;18.99;70.80;100917.41;5055648;28;20108;-63
2021/07/28 08:56:09;;;;;;;12.85;6.65;;;;;;;18.81;71.41;100925.06;5067902;28;20028;-64
2021/07/28 08:58:34;;;;;;;13.15;6.60;;;;;;;18.66;71.69;100927.09;5069161;28;20415;-63
2021/07/28 09:00:59;;;;;;;12.80;6.15;;;;;;;18.49;71.66;100922.19;5068727;28;20104;-62
2021/07/28 09:03:25;;;;;;;14.98;7.38;;;;;;;18.45;72.51;100926.94;5068949;28;20069;-62
2021/07/28 09:05:55;;;;;;;14.07;7.30;;;;;;;18.42;72.67;100929.00;5069103;28;20327;-64
2021/07/28 09:08:27;;;;;;;15.95;7.13;;;;;;;18.49;71.78;100933.78;5069858;28;20067;-64
2021/07/28 09:10:55;;;;;;;13.20;6.95;;;;;;;18.65;70.95;100936.13;5062902;28;20545;-63
2021/07/28 09:13:27;;;;;;;17.38;7.75;;;;;;;18.82;70.79;100917.84;5068860;28;20028;-64
2021/07/28 09:15:55;;;;;;;12.27;6.30;;;;;;;18.84;70.36;100923.97;5067354;28;20036;-63
2021/07/28 09:18:37;;;;;;;15.05;6.45;;;;;;;18.77;70.56;100926.28;5067523;28;20443;-64
2021/07/28 09:21:04;;;;;;;;;;;;;;;18.77;70.86;100920.03;5069121;28;20067;-64
2021/07/28 09:23:42;;;;;;;17.23;7.18;;;;;;;19.15;69.94;100926.94;5068034;28;19920;-63
2021/07/28 09:26:47;;;;;;;13.90;6.63;;;;;;;18.94;70.45;100924.97;5066814;28;20072;-63
2021/07/28 09:29:16;;;;;;;12.48;6.53;;;;;;;18.87;70.39;100931.75;5065415;28;20533;-63
2021/07/28 09:31:42;;;;;;;16.33;6.88;;;;;;;18.81;70.85;100930.44;5065988;28;20028;-63
2021/07/28 09:34:15;;;;;;;18.02;8.57;;;;;;;18.73;70.58;100915.91;5067957;28;20016;-64
2021/07/28 09:36:40;;;;;;;15.10;7.35;;;;;;;18.61;70.86;100940.00;5068562;28;20021;-63
2021/07/28 09:39:05;;;;;;;12.70;6.70;;;;;;;18.60;70.97;100934.78;5067953;28;20055;-64
2021/07/28 09:41:38;;;;;;;11.38;6.40;;;;;;;18.72;69.74;100943.69;5067998;28;20056;-63
2021/07/28 09:44:03;;;;;;;15.85;6.70;;;;;;;18.81;69.66;100917.00;5067912;28;20035;-64
2021/07/28 09:46:37;;;;;;;11.60;6.40;;;;;;;19.08;69.27;100906.91;5067828;28;20020;-63
2021/07/28 09:49:09;;;;;;;11.07;6.82;;;;;;;19.27;68.19;100927.78;5067837;28;20084;-64
2021/07/28 09:51:39;;;;;;;14.77;6.50;;;;;;;19.39;67.70;100932.16;5067862;28;20124;-64
2021/07/28 09:54:07;;;;;;;22.73;8.77;;;;;;;19.63;66.66;100931.16;5067919;28;20103;-63
2021/07/28 09:56:37;;;;;;;11.40;5.95;;;;;;;19.96;67.31;100927.53;5067771;28;20435;-63
2021/07/28 09:59:04;;;;;;;12.77;6.07;;;;;;;20.50;64.34;100926.66;5067870;28;20035;-64
2021/07/28 10:01:31;;;;;;;9.20;5.75;;;;;;;20.33;63.89;100928.94;5067318;28;20081;-63
2021/07/28 10:03:58;;;;;;;12.50;6.45;;;;;;;20.27;65.33;100934.88;5068353;28;20025;-64
2021/07/28 10:06:26;;;;;;;15.43;6.45;;;;;;;20.32;64.88;100934.47;5066986;28;20074;-65
2021/07/28 10:08:54;;;;;;;13.77;5.80;;;;;;;20.00;65.10;100938.91;5067901;28;20078;-65
2021/07/28 10:11:23;;;;;;;13.10;5.85;;;;;;;19.59;66.31;100937.72;5066035;28;20047;-65
2021/07/28 10:13:53;;;;;;;19.95;7.78;;;;;;;19.31;67.92;100932.78;5064438;28;20431;-66
2021/07/28 10:16:18;;;;;;;9.55;5.65;;;;;;;19.43;67.77;100933.59;5064672;28;20025;-65
2021/07/28 10:18:46;;;;;;;15.85;5.28;;;;;;;19.49;67.27;100935.81;5066757;28;20029;-64
2021/07/28 10:21:11;;;;;;;11.45;5.00;;;;;;;19.74;66.34;100920.34;5067395;28;20052;-64
2021/07/28 10:23:37;;;;;;;12.32;5.10;;;;;;;20.02;65.54;100919.94;5067688;28;20078;-62
2021/07/28 10:26:04;;;;;;;13.43;5.88;;;;;;;19.93;65.15;100925.09;5066806;28;20077;-64
2021/07/28 10:28:29;;;;;;;10.18;5.10;;;;;;;19.97;64.97;100928.38;5067455;28;20032;-63
2021/07/28 10:31:14;;;;;;;10.18;5.30;;;;;;;20.04;65.57;100924.22;5067066;28;20036;-62
2021/07/28 10:33:54;;;;;;;13.48;5.40;;;;;;;20.26;63.59;100930.47;5058874;28;20029;-63
2021/07/28 10:36:21;;;;;;;11.52;5.22;;;;;;;20.33;63.60;100930.78;5067350;28;20094;-62
2021/07/28 10:38:57;;;;;;;12.68;5.63;;;;;;;20.27;63.19;100924.13;5069524;28;20033;-62
2021/07/28 10:41:38;;;;;;;8.50;4.45;;;;;;;20.25;63.92;100926.06;5069877;28;20028;-64
2021/07/28 10:44:10;;;;;;;13.52;6.00;;;;;;;20.17;63.89;100924.03;5070642;28;20118;-63
2021/07/28 10:46:54;;;;;;;10.73;4.95;;;;;;;20.22;64.23;100927.19;5071021;28;20083;-64
2021/07/28 10:49:35;;;;;;;9.98;4.47;;;;;;;20.44;63.00;100949.56;5070497;28;20158;-62
2021/07/28 10:52:01;;;;;;;10.20;4.07;;;;;;;20.18;64.13;100924.88;5071397;28;20044;-63
2021/07/28 10:55:02;;;;;;;10.60;4.57;;;;;;;20.05;64.61;100931.31;5070948;28;20032;-62
2021/07/28 10:57:33;;;;;;;9.20;4.25;;;;;;;20.14;64.55;100926.97;5062277;28;20024;-63
2021/07/28 11:00:00;;;;;;;10.93;4.20;;;;;;;20.08;64.31;100927.50;5070491;28;20096;-62
2021/07/28 11:02:59;;;;;;;7.95;4.07;;;;;;;20.07;64.03;100931.16;5070753;28;20082;-62
2021/07/28 11:05:30;;;;;;;9.65;4.50;;;;;;;20.12;65.00;100931.63;5070138;28;20413;-60
2021/07/28 11:08:01;;;;;;;9.30;4.40;;;;;;;20.03;64.90;100935.94;5070307;28;20059;-62
2021/07/28 11:10:27;;;;;;;11.90;4.78;;;;;;;20.17;64.54;100931.22;5070633;28;20362;-64
2021/07/28 11:12:52;;;;;;;7.53;4.38;;;;;;;20.39;63.31;100925.75;5051975;28;20036;-62
2021/07/28 11:15:18;;;;;;;9.27;4.75;;;;;;;20.33;64.18;100933.47;5069797;28;20105;-64
2021/07/28 11:17:44;;;;;;;14.13;5.25;;;;;;;20.37;64.46;100941.19;5070470;28;20040;-62